sensor_id;sensor_type;location;lat;lon;timestamp;temperature;humidity
4520;DHT22;2272;49.226;8.108;2023-11-21T00:02:21;8.30;99.90
4520;DHT22;2272;49.226;8.108;2023-11-21T00:04:48;8.30;99.90
4520;DHT22;2272;49.226;8.108;2023-11-21T00:07:17;8.30;99.90
4520;DHT22;2272;49.226;8.108;2023-11-21T00:09:43;8.20;99.90
4520;DHT22;2272;49.226;8.108;2023-11-21T00:12:10;8.20;99.90
4520;DHT22;2272;49.226;8.108;2023-11-21T00:14:37;8.20;99.90
4520;DHT22;2272;49.226;8.108;2023-11-21T00:17:04;8.30;99.90
4520;DHT22;2272;49.226;8.108;2023-11-21T00:19:31;8.20;99.90
4520;DHT22;2272;49.226;8.108;2023-11-21T00:21:58;8.20;99.90
4520;DHT22;2272;49.226;8.108;2023-11-21T00:24:26;8.20;99.90
4520;DHT22;2272;49.226;8.108;2023-11-21T00:26:53;8.20;99.90
4520;DHT22;2272;49.226;8.108;2023-11-21T00:29:20;8.20;99.90
4520;DHT22;2272;49.226;8.108;2023-11-21T00:31:47;8.20;99.90
4520;DHT22;2272;49.226;8.108;2023-11-21T00:34:13;8.20;99.90
4520;DHT22;2272;49.226;8.108;2023-11-21T00:36:40;8.20;99.90
4520;DHT22;2272;49.226;8.108;2023-11-21T00:39:07;8.10;99.90
4520;DHT22;2272;49.226;8.108;2023-11-21T00:41:35;8.10;99.90
4520;DHT22;2272;49.226;8.108;2023-11-21T00:44:03;8.10;99.90
4520;DHT22;2272;49.226;8.108;2023-11-21T00:46:30;8.10;99.90
4520;DHT22;2272;49.226;8.108;2023-11-21T00:48:56;8.20;99.90
4520;DHT22;2272;49.226;8.108;2023-11-21T00:51:23;8.10;99.90
4520;DHT22;2272;49.226;8.108;2023-11-21T00:53:50;8.10;99.90
4520;DHT22;2272;49.226;8.108;2023-11-21T00:56:17;8.10;99.90
4520;DHT22;2272;49.226;8.108;2023-11-21T00:58:45;8.10;99.90
4520;DHT22;2272;49.226;8.108;2023-11-21T01:01:15;8.10;99.90
4520;DHT22;2272;49.226;8.108;2023-11-21T01:03:42;8.10;99.90
4520;DHT22;2272;49.226;8.108;2023-11-21T01:06:09;8.20;99.90
4520;DHT22;2272;49.226;8.108;2023-11-21T01:08:35;8.20;99.90
4520;DHT22;2272;49.226;8.108;2023-11-21T01:11:02;8.20;99.90
4520;DHT22;2272;49.226;8.108;2023-11-21T01:13:30;8.20;99.90
4520;DHT22;2272;49.226;8.108;2023-11-21T01:15:58;8.20;99.90
4520;DHT22;2272;49.226;8.108;2023-11-21T01:18:24;8.20;99.90
4520;DHT22;2272;49.226;8.108;2023-11-21T01:20:51;8.10;99.90
4520;DHT22;2272;49.226;8.108;2023-11-21T01:23:18;8.10;99.90
4520;DHT22;2272;49.226;8.108;2023-11-21T01:25:45;8.10;99.90
4520;DHT22;2272;49.226;8.108;2023-11-21T01:28:11;8.10;99.90
4520;DHT22;2272;49.226;8.108;2023-11-21T01:30:38;8.10;99.90
4520;DHT22;2272;49.226;8.108;2023-11-21T01:33:06;8.10;99.90
4520;DHT22;2272;49.226;8.108;2023-11-21T01:35:34;8.10;99.90
4520;DHT22;2272;49.226;8.108;2023-11-21T01:38:01;8.10;99.90
4520;DHT22;2272;49.226;8.108;2023-11-21T01:40:29;8.10;99.90
4520;DHT22;2272;49.226;8.108;2023-11-21T01:42:56;8.10;99.90
4520;DHT22;2272;49.226;8.108;2023-11-21T01:45:23;8.10;99.90
4520;DHT22;2272;49.226;8.108;2023-11-21T01:47:50;8.10;99.90
4520;DHT22;2272;49.226;8.108;2023-11-21T01:50:19;8.10;99.90
4520;DHT22;2272;49.226;8.108;2023-11-21T01:52:48;8.20;99.90
4520;DHT22;2272;49.226;8.108;2023-11-21T01:55:16;8.20;99.90
4520;DHT22;2272;49.226;8.108;2023-11-21T01:57:45;8.20;99.90
4520;DHT22;2272;49.226;8.108;2023-11-21T02:00:13;8.20;99.90
4520;DHT22;2272;49.226;8.108;2023-11-21T02:02:45;8.20;99.90
4520;DHT22;2272;49.226;8.108;2023-11-21T02:05:12;8.20;99.90
4520;DHT22;2272;49.226;8.108;2023-11-21T02:07:41;8.20;99.90
4520;DHT22;2272;49.226;8.108;2023-11-21T02:10:09;8.20;99.90
4520;DHT22;2272;49.226;8.108;2023-11-21T02:12:40;8.20;99.90
4520;DHT22;2272;49.226;8.108;2023-11-21T02:15:08;8.20;99.90
4520;DHT22;2272;49.226;8.108;2023-11-21T02:17:40;8.20;99.90
4520;DHT22;2272;49.226;8.108;2023-11-21T02:20:09;8.20;99.90
4520;DHT22;2272;49.226;8.108;2023-11-21T02:22:42;8.20;99.90
4520;DHT22;2272;49.226;8.108;2023-11-21T02:25:11;8.20;99.90
4520;DHT22;2272;49.226;8.108;2023-11-21T02:27:37;8.20;99.90
4520;DHT22;2272;49.226;8.108;2023-11-21T02:30:05;8.20;99.90
4520;DHT22;2272;49.226;8.108;2023-11-21T02:32:33;8.20;99.90
4520;DHT22;2272;49.226;8.108;2023-11-21T02:35:00;8.20;99.90
4520;DHT22;2272;49.226;8.108;2023-11-21T02:37:33;8.20;99.90
4520;DHT22;2272;49.226;8.108;2023-11-21T02:40:00;8.10;99.90
4520;DHT22;2272;49.226;8.108;2023-11-21T02:42:30;8.10;99.90
4520;DHT22;2272;49.226;8.108;2023-11-21T02:44:57;8.10;99.90
4520;DHT22;2272;49.226;8.108;2023-11-21T02:47:24;8.10;99.90
4520;DHT22;2272;49.226;8.108;2023-11-21T02:49:50;8.10;99.90
4520;DHT22;2272;49.226;8.108;2023-11-21T02:52:18;8.10;99.90
4520;DHT22;2272;49.226;8.108;2023-11-21T02:54:45;8.10;99.90
4520;DHT22;2272;49.226;8.108;2023-11-21T02:57:11;8.10;99.90
4520;DHT22;2272;49.226;8.108;2023-11-21T02:59:40;8.10;99.90
4520;DHT22;2272;49.226;8.108;2023-11-21T03:02:06;8.10;99.90
4520;DHT22;2272;49.226;8.108;2023-11-21T03:04:34;8.10;99.90
4520;DHT22;2272;49.226;8.108;2023-11-21T03:07:01;8.10;99.90
4520;DHT22;2272;49.226;8.108;2023-11-21T03:09:28;8.10;99.90
4520;DHT22;2272;49.226;8.108;2023-11-21T03:11:54;8.10;99.90
4520;DHT22;2272;49.226;8.108;2023-11-21T03:14:21;8.10;99.90
4520;DHT22;2272;49.226;8.108;2023-11-21T03:16:49;8.10;99.90
4520;DHT22;2272;49.226;8.108;2023-11-21T03:19:16;8.10;99.90
4520;DHT22;2272;49.226;8.108;2023-11-21T03:21:43;8.10;99.90
4520;DHT22;2272;49.226;8.108;2023-11-21T03:24:09;8.10;99.90
4520;DHT22;2272;49.226;8.108;2023-11-21T03:26:36;8.10;99.90
4520;DHT22;2272;49.226;8.108;2023-11-21T03:29:04;8.20;99.90
4520;DHT22;2272;49.226;8.108;2023-11-21T03:31:31;8.20;99.90
4520;DHT22;2272;49.226;8.108;2023-11-21T03:33:59;8.20;99.90
4520;DHT22;2272;49.226;8.108;2023-11-21T03:36:26;8.20;99.90
4520;DHT22;2272;49.226;8.108;2023-11-21T03:38:52;8.20;99.90
4520;DHT22;2272;49.226;8.108;2023-11-21T03:41:20;8.20;99.90
4520;DHT22;2272;49.226;8.108;2023-11-21T03:43:47;8.10;99.90
4520;DHT22;2272;49.226;8.108;2023-11-21T03:46:13;8.20;99.90
4520;DHT22;2272;49.226;8.108;2023-11-21T03:48:40;8.10;99.90
4520;DHT22;2272;49.226;8.108;2023-11-21T03:51:08;8.10;99.90
4520;DHT22;2272;49.226;8.108;2023-11-21T03:53:35;8.10;99.90
4520;DHT22;2272;49.226;8.108;2023-11-21T03:56:02;8.10;99.90
4520;DHT22;2272;49.226;8.108;2023-11-21T03:58:29;8.10;99.90
4520;DHT22;2272;49.226;8.108;2023-11-21T04:00:56;8.10;99.90
4520;DHT22;2272;49.226;8.108;2023-11-21T04:03:22;8.10;99.90
4520;DHT22;2272;49.226;8.108;2023-11-21T04:05:49;8.10;99.90
4520;DHT22;2272;49.226;8.108;2023-11-21T04:08:17;8.10;99.90
4520;DHT22;2272;49.226;8.108;2023-11-21T04:10:44;8.20;99.90
4520;DHT22;2272;49.226;8.108;2023-11-21T04:13:11;8.10;99.90
4520;DHT22;2272;49.226;8.108;2023-11-21T04:15:37;8.10;99.90
4520;DHT22;2272;49.226;8.108;2023-11-21T04:18:04;8.00;99.90
4520;DHT22;2272;49.226;8.108;2023-11-21T04:20:31;8.00;99.90
4520;DHT22;2272;49.226;8.108;2023-11-21T04:22:58;7.90;99.90
4520;DHT22;2272;49.226;8.108;2023-11-21T04:25:26;7.90;99.90
4520;DHT22;2272;49.226;8.108;2023-11-21T04:27:53;7.90;99.90
4520;DHT22;2272;49.226;8.108;2023-11-21T04:30:20;8.00;99.90
4520;DHT22;2272;49.226;8.108;2023-11-21T04:32:47;8.00;99.90
4520;DHT22;2272;49.226;8.108;2023-11-21T04:35:14;8.00;99.90
4520;DHT22;2272;49.226;8.108;2023-11-21T04:37:40;8.00;99.90
4520;DHT22;2272;49.226;8.108;2023-11-21T04:40:08;8.00;99.90
4520;DHT22;2272;49.226;8.108;2023-11-21T04:42:36;8.00;99.90
4520;DHT22;2272;49.226;8.108;2023-11-21T04:45:04;7.90;99.90
4520;DHT22;2272;49.226;8.108;2023-11-21T04:47:34;7.90;99.90
4520;DHT22;2272;49.226;8.108;2023-11-21T04:50:01;7.90;99.90
4520;DHT22;2272;49.226;8.108;2023-11-21T04:52:28;7.90;99.90
4520;DHT22;2272;49.226;8.108;2023-11-21T04:54:54;7.90;99.90
4520;DHT22;2272;49.226;8.108;2023-11-21T04:57:23;7.90;99.90
4520;DHT22;2272;49.226;8.108;2023-11-21T04:59:50;7.90;99.90
4520;DHT22;2272;49.226;8.108;2023-11-21T05:02:17;7.80;99.90
4520;DHT22;2272;49.226;8.108;2023-11-21T05:04:45;7.80;99.90
4520;DHT22;2272;49.226;8.108;2023-11-21T05:07:22;7.80;99.90
4520;DHT22;2272;49.226;8.108;2023-11-21T05:09:48;7.80;99.90
4520;DHT22;2272;49.226;8.108;2023-11-21T05:12:15;7.80;99.90
4520;DHT22;2272;49.226;8.108;2023-11-21T05:14:42;7.80;99.90
4520;DHT22;2272;49.226;8.108;2023-11-21T05:17:10;7.80;99.90
4520;DHT22;2272;49.226;8.108;2023-11-21T05:19:37;7.80;99.90
4520;DHT22;2272;49.226;8.108;2023-11-21T05:22:04;7.90;99.90
4520;DHT22;2272;49.226;8.108;2023-11-21T05:24:31;7.90;99.90
4520;DHT22;2272;49.226;8.108;2023-11-21T05:26:58;8.00;99.90
4520;DHT22;2272;49.226;8.108;2023-11-21T05:29:24;8.00;99.90
4520;DHT22;2272;49.226;8.108;2023-11-21T05:31:52;8.10;99.90
4520;DHT22;2272;49.226;8.108;2023-11-21T05:34:20;8.10;99.90
4520;DHT22;2272;49.226;8.108;2023-11-21T05:36:49;8.10;99.90
4520;DHT22;2272;49.226;8.108;2023-11-21T05:39:16;8.10;99.90
4520;DHT22;2272;49.226;8.108;2023-11-21T05:41:44;8.10;99.90
4520;DHT22;2272;49.226;8.108;2023-11-21T05:44:10;8.10;99.90
4520;DHT22;2272;49.226;8.108;2023-11-21T05:46:39;8.10;99.90
4520;DHT22;2272;49.226;8.108;2023-11-21T05:49:07;8.10;99.90
4520;DHT22;2272;49.226;8.108;2023-11-21T05:51:36;8.10;99.90
4520;DHT22;2272;49.226;8.108;2023-11-21T05:54:03;8.10;99.90
4520;DHT22;2272;49.226;8.108;2023-11-21T05:56:30;8.10;99.90
4520;DHT22;2272;49.226;8.108;2023-11-21T05:58:56;8.10;99.90
4520;DHT22;2272;49.226;8.108;2023-11-21T06:01:23;8.10;99.90
4520;DHT22;2272;49.226;8.108;2023-11-21T06:03:53;8.20;99.90
4520;DHT22;2272;49.226;8.108;2023-11-21T06:06:20;8.10;99.90
4520;DHT22;2272;49.226;8.108;2023-11-21T06:08:49;8.20;99.90
4520;DHT22;2272;49.226;8.108;2023-11-21T06:11:15;8.20;99.90
4520;DHT22;2272;49.226;8.108;2023-11-21T06:13:43;8.20;99.90
4520;DHT22;2272;49.226;8.108;2023-11-21T06:16:09;8.20;99.90
4520;DHT22;2272;49.226;8.108;2023-11-21T06:18:38;8.20;99.90
4520;DHT22;2272;49.226;8.108;2023-11-21T06:21:05;8.20;99.90
4520;DHT22;2272;49.226;8.108;2023-11-21T06:23:32;8.20;99.90
4520;DHT22;2272;49.226;8.108;2023-11-21T06:26:00;8.30;99.90
4520;DHT22;2272;49.226;8.108;2023-11-21T06:28:27;8.30;99.90
4520;DHT22;2272;49.226;8.108;2023-11-21T06:30:54;8.30;99.90
4520;DHT22;2272;49.226;8.108;2023-11-21T06:33:20;8.30;99.90
4520;DHT22;2272;49.226;8.108;2023-11-21T06:35:48;8.20;99.90
4520;DHT22;2272;49.226;8.108;2023-11-21T06:38:15;8.20;99.90
4520;DHT22;2272;49.226;8.108;2023-11-21T06:40:41;8.10;99.90
4520;DHT22;2272;49.226;8.108;2023-11-21T06:43:11;8.00;99.90
4520;DHT22;2272;49.226;8.108;2023-11-21T06:45:39;7.90;99.90
4520;DHT22;2272;49.226;8.108;2023-11-21T06:48:06;7.90;99.90
4520;DHT22;2272;49.226;8.108;2023-11-21T06:50:33;7.80;99.90
4520;DHT22;2272;49.226;8.108;2023-11-21T06:52:59;7.80;99.90
4520;DHT22;2272;49.226;8.108;2023-11-21T06:55:29;7.70;99.90
4520;DHT22;2272;49.226;8.108;2023-11-21T06:57:56;7.70;99.90
4520;DHT22;2272;49.226;8.108;2023-11-21T07:00:25;7.70;99.90
4520;DHT22;2272;49.226;8.108;2023-11-21T07:02:53;7.70;99.90
4520;DHT22;2272;49.226;8.108;2023-11-21T07:05:21;7.70;99.90
4520;DHT22;2272;49.226;8.108;2023-11-21T07:07:47;7.70;99.90
4520;DHT22;2272;49.226;8.108;2023-11-21T07:10:14;7.70;99.90
4520;DHT22;2272;49.226;8.108;2023-11-21T07:12:41;7.70;99.90
4520;DHT22;2272;49.226;8.108;2023-11-21T07:15:08;7.70;99.90
4520;DHT22;2272;49.226;8.108;2023-11-21T07:17:36;7.70;99.90
4520;DHT22;2272;49.226;8.108;2023-11-21T07:20:04;7.70;99.90
4520;DHT22;2272;49.226;8.108;2023-11-21T07:22:32;7.70;99.90
4520;DHT22;2272;49.226;8.108;2023-11-21T07:24:58;7.70;99.90
4520;DHT22;2272;49.226;8.108;2023-11-21T07:27:25;7.70;99.90
4520;DHT22;2272;49.226;8.108;2023-11-21T07:29:52;7.70;99.90
4520;DHT22;2272;49.226;8.108;2023-11-21T07:32:19;7.70;99.90
4520;DHT22;2272;49.226;8.108;2023-11-21T07:34:47;7.70;99.90
4520;DHT22;2272;49.226;8.108;2023-11-21T07:37:14;7.80;99.90
4520;DHT22;2272;49.226;8.108;2023-11-21T07:39:41;7.80;99.90
4520;DHT22;2272;49.226;8.108;2023-11-21T07:42:12;7.80;99.90
4520;DHT22;2272;49.226;8.108;2023-11-21T07:44:39;7.90;99.90
4520;DHT22;2272;49.226;8.108;2023-11-21T07:47:06;7.90;99.90
4520;DHT22;2272;49.226;8.108;2023-11-21T07:49:35;8.00;99.90
4520;DHT22;2272;49.226;8.108;2023-11-21T07:52:03;8.00;99.90
4520;DHT22;2272;49.226;8.108;2023-11-21T07:54:30;8.10;99.90
4520;DHT22;2272;49.226;8.108;2023-11-21T07:56:57;8.20;99.90
4520;DHT22;2272;49.226;8.108;2023-11-21T07:59:23;8.20;99.90
4520;DHT22;2272;49.226;8.108;2023-11-21T08:01:50;8.30;99.90
4520;DHT22;2272;49.226;8.108;2023-11-21T08:04:17;8.30;99.90
4520;DHT22;2272;49.226;8.108;2023-11-21T08:06:44;8.40;99.90
4520;DHT22;2272;49.226;8.108;2023-11-21T08:09:12;8.40;99.90
4520;DHT22;2272;49.226;8.108;2023-11-21T08:11:38;8.40;99.90
4520;DHT22;2272;49.226;8.108;2023-11-21T08:14:05;8.40;99.90
4520;DHT22;2272;49.226;8.108;2023-11-21T08:16:32;8.40;99.90
4520;DHT22;2272;49.226;8.108;2023-11-21T08:18:58;8.50;99.90
4520;DHT22;2272;49.226;8.108;2023-11-21T08:21:25;8.50;99.90
4520;DHT22;2272;49.226;8.108;2023-11-21T08:23:54;8.60;99.90
4520;DHT22;2272;49.226;8.108;2023-11-21T08:26:22;8.70;99.90
4520;DHT22;2272;49.226;8.108;2023-11-21T08:28:49;8.80;99.90
4520;DHT22;2272;49.226;8.108;2023-11-21T08:31:22;8.80;99.90
4520;DHT22;2272;49.226;8.108;2023-11-21T08:33:49;9.00;99.90
4520;DHT22;2272;49.226;8.108;2023-11-21T08:36:16;9.00;99.90
4520;DHT22;2272;49.226;8.108;2023-11-21T08:38:43;9.00;99.90
4520;DHT22;2272;49.226;8.108;2023-11-21T08:41:10;9.00;99.90
4520;DHT22;2272;49.226;8.108;2023-11-21T08:43:38;9.10;99.90
4520;DHT22;2272;49.226;8.108;2023-11-21T08:46:05;9.10;99.90
4520;DHT22;2272;49.226;8.108;2023-11-21T08:48:34;9.20;99.90
4520;DHT22;2272;49.226;8.108;2023-11-21T08:51:01;9.40;99.90
4520;DHT22;2272;49.226;8.108;2023-11-21T08:53:29;9.50;99.90
4520;DHT22;2272;49.226;8.108;2023-11-21T08:55:56;9.60;99.90
4520;DHT22;2272;49.226;8.108;2023-11-21T08:58:23;9.60;99.90
4520;DHT22;2272;49.226;8.108;2023-11-21T09:00:51;9.70;99.90
4520;DHT22;2272;49.226;8.108;2023-11-21T09:03:20;9.80;99.90
4520;DHT22;2272;49.226;8.108;2023-11-21T09:05:47;9.90;99.90
4520;DHT22;2272;49.226;8.108;2023-11-21T09:08:13;10.00;99.90
4520;DHT22;2272;49.226;8.108;2023-11-21T09:10:40;10.10;99.90
4520;DHT22;2272;49.226;8.108;2023-11-21T09:13:08;10.10;99.90
4520;DHT22;2272;49.226;8.108;2023-11-21T09:15:35;10.10;99.90
4520;DHT22;2272;49.226;8.108;2023-11-21T09:18:04;10.10;99.90
4520;DHT22;2272;49.226;8.108;2023-11-21T09:20:30;10.10;99.90
4520;DHT22;2272;49.226;8.108;2023-11-21T09:22:57;10.10;99.90
4520;DHT22;2272;49.226;8.108;2023-11-21T09:25:24;10.20;99.90
4520;DHT22;2272;49.226;8.108;2023-11-21T09:27:50;10.30;99.90
4520;DHT22;2272;49.226;8.108;2023-11-21T09:30:17;10.30;99.90
4520;DHT22;2272;49.226;8.108;2023-11-21T09:32:45;10.30;99.90
4520;DHT22;2272;49.226;8.108;2023-11-21T09:35:14;10.20;99.90
4520;DHT22;2272;49.226;8.108;2023-11-21T09:37:41;10.20;99.90
4520;DHT22;2272;49.226;8.108;2023-11-21T09:40:10;10.20;99.90
4520;DHT22;2272;49.226;8.108;2023-11-21T09:42:40;10.30;99.90
4520;DHT22;2272;49.226;8.108;2023-11-21T09:45:17;10.30;99.90
4520;DHT22;2272;49.226;8.108;2023-11-21T09:47:45;10.30;99.90
4520;DHT22;2272;49.226;8.108;2023-11-21T09:50:16;10.30;99.90
4520;DHT22;2272;49.226;8.108;2023-11-21T09:52:57;10.40;99.90
4520;DHT22;2272;49.226;8.108;2023-11-21T09:55:27;10.30;99.90
4520;DHT22;2272;49.226;8.108;2023-11-21T09:57:56;10.40;99.90
4520;DHT22;2272;49.226;8.108;2023-11-21T10:00:23;10.40;99.90
4520;DHT22;2272;49.226;8.108;2023-11-21T10:02:50;10.30;99.90
4520;DHT22;2272;49.226;8.108;2023-11-21T10:05:20;10.30;99.90
4520;DHT22;2272;49.226;8.108;2023-11-21T10:07:48;10.20;99.90
4520;DHT22;2272;49.226;8.108;2023-11-21T10:10:18;10.20;99.90
4520;DHT22;2272;49.226;8.108;2023-11-21T10:12:54;10.00;99.90
4520;DHT22;2272;49.226;8.108;2023-11-21T10:15:23;9.90;99.90
4520;DHT22;2272;49.226;8.108;2023-11-21T10:17:52;9.70;99.90
4520;DHT22;2272;49.226;8.108;2023-11-21T10:20:20;9.70;99.90
4520;DHT22;2272;49.226;8.108;2023-11-21T10:22:50;9.60;99.90
4520;DHT22;2272;49.226;8.108;2023-11-21T10:25:16;9.60;99.90
4520;DHT22;2272;49.226;8.108;2023-11-21T10:27:47;9.70;99.90
4520;DHT22;2272;49.226;8.108;2023-11-21T10:30:15;9.70;99.90
4520;DHT22;2272;49.226;8.108;2023-11-21T10:32:43;9.80;99.90
4520;DHT22;2272;49.226;8.108;2023-11-21T10:35:10;9.90;99.90
4520;DHT22;2272;49.226;8.108;2023-11-21T10:37:39;9.80;99.90
4520;DHT22;2272;49.226;8.108;2023-11-21T10:40:07;9.90;99.90
4520;DHT22;2272;49.226;8.108;2023-11-21T10:42:34;9.80;99.90
4520;DHT22;2272;49.226;8.108;2023-11-21T10:45:01;9.80;99.90
4520;DHT22;2272;49.226;8.108;2023-11-21T10:47:31;9.90;99.90
4520;DHT22;2272;49.226;8.108;2023-11-21T10:50:00;9.90;99.90
4520;DHT22;2272;49.226;8.108;2023-11-21T10:52:27;9.90;99.90
4520;DHT22;2272;49.226;8.108;2023-11-21T10:54:56;9.90;99.90
4520;DHT22;2272;49.226;8.108;2023-11-21T10:57:25;9.90;99.90
4520;DHT22;2272;49.226;8.108;2023-11-21T10:59:54;9.80;99.90
4520;DHT22;2272;49.226;8.108;2023-11-21T11:02:23;9.80;99.90
4520;DHT22;2272;49.226;8.108;2023-11-21T11:04:53;9.70;99.90
4520;DHT22;2272;49.226;8.108;2023-11-21T11:07:24;9.70;99.90
4520;DHT22;2272;49.226;8.108;2023-11-21T11:09:58;9.70;99.90
4520;DHT22;2272;49.226;8.108;2023-11-21T11:12:25;9.80;99.90
4520;DHT22;2272;49.226;8.108;2023-11-21T11:14:53;9.80;99.90
4520;DHT22;2272;49.226;8.108;2023-11-21T11:17:22;9.70;99.90
4520;DHT22;2272;49.226;8.108;2023-11-21T11:19:51;9.60;99.90
4520;DHT22;2272;49.226;8.108;2023-11-21T11:22:28;9.50;99.90
4520;DHT22;2272;49.226;8.108;2023-11-21T11:25:25;9.50;99.90
4520;DHT22;2272;49.226;8.108;2023-11-21T11:27:57;9.40;99.90
4520;DHT22;2272;49.226;8.108;2023-11-21T11:30:37;9.40;99.90
4520;DHT22;2272;49.226;8.108;2023-11-21T11:33:11;9.50;99.90
4520;DHT22;2272;49.226;8.108;2023-11-21T11:35:49;9.60;99.90
4520;DHT22;2272;49.226;8.108;2023-11-21T11:38:17;9.70;99.90
4520;DHT22;2272;49.226;8.108;2023-11-21T11:40:46;9.70;99.90
4520;DHT22;2272;49.226;8.108;2023-11-21T11:43:13;9.70;99.90
4520;DHT22;2272;49.226;8.108;2023-11-21T11:45:51;9.60;99.90
4520;DHT22;2272;49.226;8.108;2023-11-21T11:48:22;9.50;99.90
4520;DHT22;2272;49.226;8.108;2023-11-21T11:51:02;9.50;99.90
4520;DHT22;2272;49.226;8.108;2023-11-21T11:53:35;9.40;99.90
4520;DHT22;2272;49.226;8.108;2023-11-21T11:56:23;9.30;99.90
4520;DHT22;2272;49.226;8.108;2023-11-21T11:58:51;9.10;99.90
4520;DHT22;2272;49.226;8.108;2023-11-21T12:01:19;8.90;99.90
4520;DHT22;2272;49.226;8.108;2023-11-21T12:04:23;8.90;99.90
4520;DHT22;2272;49.226;8.108;2023-11-21T12:06:56;8.90;99.90
4520;DHT22;2272;49.226;8.108;2023-11-21T12:09:25;8.90;99.90
4520;DHT22;2272;49.226;8.108;2023-11-21T12:11:54;8.90;99.90
4520;DHT22;2272;49.226;8.108;2023-11-21T12:14:22;9.00;99.90
4520;DHT22;2272;49.226;8.108;2023-11-21T12:16:49;9.00;99.90
4520;DHT22;2272;49.226;8.108;2023-11-21T12:19:17;9.10;99.90
4520;DHT22;2272;49.226;8.108;2023-11-21T12:21:44;9.20;99.90
4520;DHT22;2272;49.226;8.108;2023-11-21T12:24:11;9.20;99.90
4520;DHT22;2272;49.226;8.108;2023-11-21T12:26:39;9.20;99.90
4520;DHT22;2272;49.226;8.108;2023-11-21T12:29:07;9.20;99.90
4520;DHT22;2272;49.226;8.108;2023-11-21T12:31:34;9.30;99.90
4520;DHT22;2272;49.226;8.108;2023-11-21T12:34:01;9.40;99.90
4520;DHT22;2272;49.226;8.108;2023-11-21T12:36:29;9.70;99.90
4520;DHT22;2272;49.226;8.108;2023-11-21T12:38:56;9.90;99.90
4520;DHT22;2272;49.226;8.108;2023-11-21T12:41:23;10.10;99.90
4520;DHT22;2272;49.226;8.108;2023-11-21T12:43:49;10.20;99.90
4520;DHT22;2272;49.226;8.108;2023-11-21T12:46:17;10.20;99.90
4520;DHT22;2272;49.226;8.108;2023-11-21T12:48:45;10.20;99.90
4520;DHT22;2272;49.226;8.108;2023-11-21T12:51:13;10.20;99.90
4520;DHT22;2272;49.226;8.108;2023-11-21T12:53:42;10.20;99.90
4520;DHT22;2272;49.226;8.108;2023-11-21T12:56:10;10.30;99.90
4520;DHT22;2272;49.226;8.108;2023-11-21T12:58:37;10.30;99.90
4520;DHT22;2272;49.226;8.108;2023-11-21T13:01:06;10.30;99.90
4520;DHT22;2272;49.226;8.108;2023-11-21T13:03:38;10.40;99.90
4520;DHT22;2272;49.226;8.108;2023-11-21T13:06:06;10.50;99.90
4520;DHT22;2272;49.226;8.108;2023-11-21T13:08:33;10.60;99.90
4520;DHT22;2272;49.226;8.108;2023-11-21T13:11:01;10.60;99.90
4520;DHT22;2272;49.226;8.108;2023-11-21T13:13:29;10.50;99.90
4520;DHT22;2272;49.226;8.108;2023-11-21T13:15:57;10.50;99.90
4520;DHT22;2272;49.226;8.108;2023-11-21T13:18:27;10.40;99.90
4520;DHT22;2272;49.226;8.108;2023-11-21T13:20:56;10.40;99.90
4520;DHT22;2272;49.226;8.108;2023-11-21T13:23:23;10.30;99.90
4520;DHT22;2272;49.226;8.108;2023-11-21T13:25:49;10.20;99.90
4520;DHT22;2272;49.226;8.108;2023-11-21T13:28:16;10.10;99.90
4520;DHT22;2272;49.226;8.108;2023-11-21T13:30:43;10.10;99.90
4520;DHT22;2272;49.226;8.108;2023-11-21T13:33:10;10.00;99.90
4520;DHT22;2272;49.226;8.108;2023-11-21T13:35:43;10.00;99.90
4520;DHT22;2272;49.226;8.108;2023-11-21T13:38:15;10.00;99.90
4520;DHT22;2272;49.226;8.108;2023-11-21T13:40:46;10.00;99.90
4520;DHT22;2272;49.226;8.108;2023-11-21T13:43:16;10.10;99.90
4520;DHT22;2272;49.226;8.108;2023-11-21T13:45:46;10.20;99.90
4520;DHT22;2272;49.226;8.108;2023-11-21T13:48:13;10.40;99.90
4520;DHT22;2272;49.226;8.108;2023-11-21T13:50:44;10.50;99.90
4520;DHT22;2272;49.226;8.108;2023-11-21T13:53:15;10.50;99.90
4520;DHT22;2272;49.226;8.108;2023-11-21T13:55:47;10.50;99.90
4520;DHT22;2272;49.226;8.108;2023-11-21T13:58:14;10.60;99.90
4520;DHT22;2272;49.226;8.108;2023-11-21T14:00:47;10.70;99.90
4520;DHT22;2272;49.226;8.108;2023-11-21T14:03:21;10.70;99.90
4520;DHT22;2272;49.226;8.108;2023-11-21T14:05:57;10.70;99.90
4520;DHT22;2272;49.226;8.108;2023-11-21T14:08:27;10.80;99.90
4520;DHT22;2272;49.226;8.108;2023-11-21T14:10:54;10.80;99.90
4520;DHT22;2272;49.226;8.108;2023-11-21T14:13:23;10.80;99.90
4520;DHT22;2272;49.226;8.108;2023-11-21T14:15:50;10.80;99.90
4520;DHT22;2272;49.226;8.108;2023-11-21T14:18:23;10.80;99.90
4520;DHT22;2272;49.226;8.108;2023-11-21T14:20:58;10.80;99.90
4520;DHT22;2272;49.226;8.108;2023-11-21T14:23:26;10.80;99.90
4520;DHT22;2272;49.226;8.108;2023-11-21T14:25:55;10.80;99.90
4520;DHT22;2272;49.226;8.108;2023-11-21T14:28:22;10.80;99.90
4520;DHT22;2272;49.226;8.108;2023-11-21T14:30:49;10.70;99.90
4520;DHT22;2272;49.226;8.108;2023-11-21T14:33:16;10.70;99.90
4520;DHT22;2272;49.226;8.108;2023-11-21T14:35:43;10.60;99.90
4520;DHT22;2272;49.226;8.108;2023-11-21T14:38:10;10.60;99.90
4520;DHT22;2272;49.226;8.108;2023-11-21T14:40:38;10.60;99.90
4520;DHT22;2272;49.226;8.108;2023-11-21T14:43:05;10.60;99.90
4520;DHT22;2272;49.226;8.108;2023-11-21T14:45:32;10.60;99.90
4520;DHT22;2272;49.226;8.108;2023-11-21T14:47:59;10.50;99.90
4520;DHT22;2272;49.226;8.108;2023-11-21T14:50:33;10.50;99.90
4520;DHT22;2272;49.226;8.108;2023-11-21T14:53:09;10.40;99.90
4520;DHT22;2272;49.226;8.108;2023-11-21T14:55:39;10.30;99.90
4520;DHT22;2272;49.226;8.108;2023-11-21T14:58:19;10.20;99.90
4520;DHT22;2272;49.226;8.108;2023-11-21T15:00:53;10.10;99.90
4520;DHT22;2272;49.226;8.108;2023-11-21T15:03:23;10.10;99.90
4520;DHT22;2272;49.226;8.108;2023-11-21T15:06:08;10.00;99.90
4520;DHT22;2272;49.226;8.108;2023-11-21T15:08:48;9.90;99.90
4520;DHT22;2272;49.226;8.108;2023-11-21T15:11:20;9.80;99.90
4520;DHT22;2272;49.226;8.108;2023-11-21T15:13:50;9.60;99.90
4520;DHT22;2272;49.226;8.108;2023-11-21T15:16:18;9.60;99.90
4520;DHT22;2272;49.226;8.108;2023-11-21T15:18:45;9.50;99.90
4520;DHT22;2272;49.226;8.108;2023-11-21T15:21:11;9.40;99.90
4520;DHT22;2272;49.226;8.108;2023-11-21T15:23:38;9.30;99.90
4520;DHT22;2272;49.226;8.108;2023-11-21T15:26:07;9.20;99.90
4520;DHT22;2272;49.226;8.108;2023-11-21T15:28:35;9.10;99.90
4520;DHT22;2272;49.226;8.108;2023-11-21T15:31:02;9.00;99.90
4520;DHT22;2272;49.226;8.108;2023-11-21T15:33:29;8.90;99.90
4520;DHT22;2272;49.226;8.108;2023-11-21T15:35:56;8.90;99.90
4520;DHT22;2272;49.226;8.108;2023-11-21T15:38:23;8.80;99.90
4520;DHT22;2272;49.226;8.108;2023-11-21T15:40:50;8.80;99.90
4520;DHT22;2272;49.226;8.108;2023-11-21T15:43:17;8.70;99.90
4520;DHT22;2272;49.226;8.108;2023-11-21T15:45:45;8.60;99.90
4520;DHT22;2272;49.226;8.108;2023-11-21T15:48:12;8.60;99.90
4520;DHT22;2272;49.226;8.108;2023-11-21T15:50:39;8.50;99.90
4520;DHT22;2272;49.226;8.108;2023-11-21T15:53:06;8.40;99.90
4520;DHT22;2272;49.226;8.108;2023-11-21T15:55:33;8.40;99.90
4520;DHT22;2272;49.226;8.108;2023-11-21T15:58:01;8.50;99.90
4520;DHT22;2272;49.226;8.108;2023-11-21T16:00:30;8.50;99.90
4520;DHT22;2272;49.226;8.108;2023-11-21T16:02:58;8.50;99.90
4520;DHT22;2272;49.226;8.108;2023-11-21T16:05:24;8.60;99.90
4520;DHT22;2272;49.226;8.108;2023-11-21T16:07:52;8.60;99.90
4520;DHT22;2272;49.226;8.108;2023-11-21T16:10:20;8.60;99.90
4520;DHT22;2272;49.226;8.108;2023-11-21T16:12:46;8.70;99.90
4520;DHT22;2272;49.226;8.108;2023-11-21T16:15:13;8.70;99.90
4520;DHT22;2272;49.226;8.108;2023-11-21T16:17:40;8.70;99.90
4520;DHT22;2272;49.226;8.108;2023-11-21T16:20:09;8.70;99.90
4520;DHT22;2272;49.226;8.108;2023-11-21T16:22:38;8.70;99.90